Time;durP1;ratioP1;P1;durP2;ratioP2;P2;SDS_P1;SDS_P2;PMS_P1;PMS_P2;Temp;Humidity;BMP_temperature;BMP_pressure;BME280_temperature;BME280_humidity;BME280_pressure;Samples;Min_cycle;Max_cycle;Signal;HPM_P1;HPM_P2
2022/02/05 00:02:08;;;;;;;5.00;4.30;;;;;;;10.49;53.58;95182.28;5032181;28;20048;-71
2022/02/05 00:04:35;;;;;;;3.78;3.30;;;;;;;10.04;54.41;95179.56;5015090;28;20029;-71
2022/02/05 00:07:02;;;;;;;2.80;2.55;;;;;;;9.66;55.59;95183.53;5014478;28;20032;-71
2022/02/05 00:42:14;;;;;;;3.15;1.90;;;;;;;9.81;55.34;95226.53;5039450;28;20025;-71
2022/02/05 00:44:40;;;;;;;2.78;2.30;;;;;;;9.51;56.36;95232.44;5031389;28;20032;-71
2022/02/05 00:47:06;;;;;;;2.80;1.80;;;;;;;9.82;55.93;95238.72;5031330;28;20021;-70
2022/02/05 00:49:31;;;;;;;3.28;2.03;;;;;;;9.45;57.26;95234.38;5031444;28;20533;-71
2022/02/05 00:52:06;;;;;;;2.45;2.22;;;;;;;9.81;56.22;95199.16;5031504;28;20022;-71
2022/02/05 00:54:45;;;;;;;2.40;2.20;;;;;;;9.81;56.46;95225.75;5032881;28;20022;-70
2022/02/05 00:57:32;;;;;;;2.33;2.13;;;;;;;9.44;57.34;95243.44;5035980;28;20044;-70
2022/02/05 00:59:57;;;;;;;2.10;1.95;;;;;;;9.31;57.48;95223.75;5030990;28;20045;-71
2022/02/05 01:02:23;;;;;;;2.28;2.05;;;;;;;9.54;57.73;95258.41;5013433;28;20057;-71
2022/02/05 01:04:49;;;;;;;2.22;2.03;;;;;;;8.79;59.83;95331.00;5031356;28;20029;-71
2022/02/05 01:07:14;;;;;;;3.30;0.70;;;;;;;6.27;68.46;95385.66;5031272;28;20022;-70
2022/02/05 01:09:43;;;;;;;1.50;0.45;;;;;;;5.05;70.95;95351.53;5032670;28;20029;-70
2022/02/05 01:12:09;;;;;;;0.50;0.50;;;;;;;4.40;72.33;95351.16;5035574;28;20489;-70
2022/02/05 01:14:44;;;;;;;0.32;0.32;;;;;;;4.26;73.87;95358.78;5031056;28;20017;-69
2022/02/05 01:17:11;;;;;;;0.85;0.77;;;;;;;4.64;72.12;95347.00;5031124;28;20112;-70
2022/02/05 01:20:02;;;;;;;2.97;1.00;;;;;;;4.94;72.33;95362.06;5013134;28;20048;-70
2022/02/05 01:22:22;;;;;;;1.65;0.50;;;;;;;4.85;72.35;95389.22;5030721;28;20033;-70
2022/02/05 01:24:50;;;;;;;1.15;0.95;;;;;;;4.76;73.57;95370.50;5033509;28;20033;-71
2022/02/05 01:27:28;;;;;;;1.60;1.35;;;;;;;4.95;72.82;95394.50;5024786;28;20088;-70
2022/02/05 01:32:24;;;;;;;4.22;1.33;;;;;;;5.23;72.15;95406.41;5050997;28;20515;-70
2022/02/05 01:35:02;;;;;;;2.67;0.95;;;;;;;5.04;72.15;95400.84;5050801;28;20452;-70
2022/02/05 01:56:31;;;;;;;1.67;1.58;;;;;;;5.10;72.47;95423.53;5014379;28;20573;-70
2022/02/05 02:12:14;;;;;;;2.20;2.00;;;;;;;5.63;72.56;95479.50;5039080;28;20106;-69
2022/02/05 02:15:19;;;;;;;2.72;2.53;;;;;;;5.31;72.11;95482.34;5016570;28;20022;-70
2022/02/05 02:23:03;;;;;;;4.10;2.42;;;;;;;5.70;70.53;95474.72;5033990;28;20049;-70
2022/02/05 02:25:48;;;;;;;1.60;1.05;;;;;;;5.00;70.83;95478.06;5020630;28;20454;-69
2022/02/05 02:28:23;;;;;;;1.58;1.27;;;;;;;4.85;69.41;95516.50;5016088;28;20088;-70
2022/02/05 02:31:03;;;;;;;2.05;1.00;;;;;;;5.00;68.01;95497.31;5033755;28;20029;-69
2022/02/05 02:33:37;;;;;;;1.23;0.65;;;;;;;4.63;65.95;95513.28;5016146;28;20079;-70
2022/02/05 02:36:09;;;;;;;1.65;0.93;;;;;;;5.54;64.43;95515.38;5016162;28;20029;-70
2022/02/05 02:38:44;;;;;;;0.40;0.40;;;;;;;4.64;63.88;95494.56;5016058;28;20113;-70
2022/02/05 02:41:19;;;;;;;1.00;0.30;;;;;;;4.37;63.92;95480.75;5037930;28;20390;-70
2022/02/05 02:43:44;;;;;;;0.85;0.30;;;;;;;4.92;62.26;95492.56;5032562;28;20377;-70
2022/02/05 02:46:09;;;;;;;0.50;0.50;;;;;;;5.30;61.54;95522.19;5033666;28;20113;-70
2022/02/05 02:48:36;;;;;;;3.80;0.60;;;;;;;4.84;62.01;95506.22;5033274;28;20124;-70
2022/02/05 02:58:51;;;;;;;1.02;1.00;;;;;;;5.34;61.18;95550.44;5033641;28;20032;-70
2022/02/05 03:01:19;;;;;;;0.60;0.30;;;;;;;5.07;60.77;95549.81;5015589;28;20059;-71
2022/02/05 03:03:45;;;;;;;1.10;0.30;;;;;;;5.08;60.72;95540.88;5034232;28;20429;-70
2022/02/05 03:06:11;;;;;;;0.22;0.22;;;;;;;4.96;60.77;95562.16;5015762;28;20029;-70
2022/02/05 03:08:36;;;;;;;0.77;0.38;;;;;;;4.88;61.12;95541.56;5013833;28;20563;-70
2022/02/05 03:11:02;;;;;;;0.40;0.30;;;;;;;4.75;61.66;95568.38;5016774;28;20434;-70
2022/02/05 03:13:28;;;;;;;0.57;0.52;;;;;;;4.91;61.08;95562.94;5033437;28;20044;-70
2022/02/05 03:15:53;;;;;;;0.40;0.40;;;;;;;4.83;61.33;95529.16;5033107;28;20462;-69
2022/02/05 03:21:03;;;;;;;0.38;0.22;;;;;;;5.50;60.57;95582.13;5033503;28;20036;-70
2022/02/05 03:23:28;;;;;;;0.88;0.65;;;;;;;4.90;61.68;95571.88;5016029;28;20464;-70
2022/02/05 03:25:53;;;;;;;0.68;0.68;;;;;;;5.33;59.79;95582.34;5035143;28;20079;-70
2022/02/05 03:28:20;;;;;;;0.93;0.52;;;;;;;5.08;60.42;95596.22;5032818;28;20027;-69
2022/02/05 03:30:45;;;;;;;0.52;0.40;;;;;;;5.41;59.43;95598.44;5033122;28;20026;-70
2022/02/05 03:33:11;;;;;;;0.77;0.50;;;;;;;5.09;60.83;95582.00;5032674;28;20061;-69
2022/02/05 03:35:36;;;;;;;1.55;0.77;;;;;;;5.51;60.02;95613.50;5032883;28;20034;-70
2022/02/05 03:38:02;;;;;;;1.42;0.50;;;;;;;4.51;62.69;95628.59;5032649;28;20083;-70
2022/02/05 03:40:28;;;;;;;1.13;0.55;;;;;;;4.39;62.88;95636.66;5034069;28;20029;-71
2022/02/05 03:42:53;;;;;;;0.90;0.40;;;;;;;4.27;62.05;95617.63;5032388;28;20039;-69
2022/02/05 03:45:18;;;;;;;0.55;0.50;;;;;;;4.51;61.80;95637.28;5014669;28;20080;-70
2022/02/05 03:47:44;;;;;;;1.25;0.75;;;;;;;4.72;61.32;95616.34;5032577;28;20041;-69
2022/02/05 03:50:10;;;;;;;1.95;1.35;;;;;;;4.87;60.99;95640.16;5014399;28;20033;-70
2022/02/05 03:52:37;;;;;;;1.20;1.10;;;;;;;4.38;62.47;95642.97;5032251;28;20022;-70
2022/02/05 03:55:02;;;;;;;0.52;0.50;;;;;;;4.48;63.21;95655.44;5032254;28;20029;-69
2022/02/05 03:57:28;;;;;;;1.75;0.80;;;;;;;4.47;62.81;95648.59;5033143;28;20363;-69
2022/02/05 03:59:53;;;;;;;1.38;0.75;;;;;;;4.11;62.68;95620.13;5032013;28;20129;-69
2022/02/05 04:02:19;;;;;;;1.38;0.90;;;;;;;4.48;62.09;95644.91;5031599;28;20040;-69
2022/02/05 04:04:45;;;;;;;1.40;0.57;;;;;;;4.40;62.39;95670.69;5014517;28;20160;-69
2022/02/05 04:07:10;;;;;;;2.20;0.60;;;;;;;4.29;61.75;95674.25;5031831;28;20573;-69
2022/02/05 04:09:41;;;;;;;2.25;0.65;;;;;;;4.59;61.27;95680.81;5031826;28;20029;-69
2022/02/05 04:17:28;;;;;;;1.27;0.75;;;;;;;4.24;61.65;95702.38;5032373;28;20119;-69
2022/02/05 04:19:53;;;;;;;2.65;0.90;;;;;;;4.76;59.96;95697.28;5031600;28;20069;-69
2022/02/05 04:22:19;;;;;;;1.13;0.68;;;;;;;4.19;60.25;95697.84;5031451;28;20520;-71
2022/02/05 04:24:44;;;;;;;0.70;0.70;;;;;;;5.01;59.03;95695.84;5031764;28;20062;-69
2022/02/05 04:27:10;;;;;;;2.20;0.82;;;;;;;4.45;60.04;95693.59;5039682;28;20024;-69
2022/02/05 04:29:36;;;;;;;4.63;1.00;;;;;;;4.36;60.12;95727.53;5049875;28;20120;-69
2022/02/05 04:32:03;;;;;;;0.90;0.60;;;;;;;4.55;59.43;95704.22;5051290;28;20029;-69
2022/02/05 04:34:28;;;;;;;3.70;1.33;;;;;;;4.84;59.30;95738.19;5051315;28;20079;-70
2022/02/05 04:36:54;;;;;;;0.75;0.52;;;;;;;4.80;58.95;95719.44;5033640;28;20473;-69
2022/02/05 04:39:21;;;;;;;0.77;0.70;;;;;;;4.17;60.95;95708.66;5033337;28;20251;-70
2022/02/05 04:45:18;;;;;;;0.70;0.70;;;;;;;4.19;61.59;95726.81;5031211;28;20026;-70
2022/02/05 05:09:30;;;;;;;2.95;1.98;;;;;;;4.93;58.59;95718.22;5075886;23;20068;-63
2022/02/05 05:19:46;;;;;;;3.45;2.38;;;;;;;6.23;56.42;95772.94;5070525;28;20150;-63
2022/02/05 05:22:12;;;;;;;3.15;2.53;;;;;;;5.62;56.41;95741.78;5070443;28;20050;-63
2022/02/05 05:24:38;;;;;;;2.90;2.70;;;;;;;5.41;56.95;95745.38;5070692;28;20023;-63
2022/02/05 05:27:04;;;;;;;2.95;2.60;;;;;;;4.97;58.52;95732.47;5057503;28;20033;-63
2022/02/05 05:29:29;;;;;;;2.95;2.70;;;;;;;4.80;57.51;95645.63;5050083;28;20404;-63
2022/02/05 05:31:55;;;;;;;5.13;3.10;;;;;;;4.72;57.22;95603.97;5049919;28;20033;-64
2022/02/05 05:34:21;;;;;;;4.28;3.00;;;;;;;5.86;56.96;95763.28;5050273;28;20075;-64
2022/02/05 05:36:47;;;;;;;3.67;2.65;;;;;;;5.75;56.15;95703.59;5050425;28;20059;-63
2022/02/05 05:39:14;;;;;;;4.82;3.00;;;;;;;4.52;57.02;95559.84;5050318;28;20013;-63
2022/02/05 05:41:40;;;;;;;3.08;2.88;;;;;;;5.69;56.91;95729.19;5049634;28;20098;-63
2022/02/05 05:46:53;;;;;;;3.80;3.40;;;;;;;6.32;55.60;95778.50;5050986;28;20113;-64
2022/02/05 05:49:22;;;;;;;4.05;3.65;;;;;;;6.40;56.11;95802.59;5050066;28;20496;-63
2022/02/05 05:51:48;;;;;;;5.38;4.05;;;;;;;6.39;55.66;95797.53;5050218;28;20036;-63
2022/02/05 05:54:15;;;;;;;4.85;4.35;;;;;;;6.14;55.77;95770.03;5050464;28;20029;-65
2022/02/05 05:56:42;;;;;;;5.95;3.90;;;;;;;6.18;55.52;95784.28;5027074;28;20455;-65
2022/02/05 05:59:08;;;;;;;6.75;4.45;;;;;;;6.07;55.45;95785.31;5050061;28;20013;-64
2022/02/05 06:01:36;;;;;;;5.85;4.88;;;;;;;6.19;55.98;95814.94;5050175;28;20488;-65
2022/02/05 06:04:01;;;;;;;7.68;5.00;;;;;;;6.23;55.82;95818.63;5050080;28;20029;-64
2022/02/05 06:06:27;;;;;;;5.30;3.80;;;;;;;5.95;56.99;95793.47;5050493;28;20082;-65
2022/02/05 06:08:52;;;;;;;5.43;3.97;;;;;;;5.22;57.15;95706.28;5049972;28;20115;-65
2022/02/05 06:11:18;;;;;;;4.65;3.53;;;;;;;5.10;59.17;95805.06;5049809;28;20033;-62
2022/02/05 06:13:43;;;;;;;3.33;3.03;;;;;;;5.00;59.28;95799.72;5049978;28;20137;-64
2022/02/05 06:16:13;;;;;;;3.33;3.03;;;;;;;4.62;60.25;95802.31;5050047;28;20140;-64
2022/02/05 06:18:39;;;;;;;3.58;2.92;;;;;;;4.59;59.99;95818.59;5049851;28;20097;-64
2022/02/05 06:21:04;;;;;;;2.63;2.42;;;;;;;4.86;59.84;95831.78;5049829;28;20573;-65
2022/02/05 06:23:30;;;;;;;3.17;2.88;;;;;;;4.86;58.99;95809.88;5050026;28;20036;-64
2022/02/05 06:25:56;;;;;;;4.20;2.80;;;;;;;4.53;59.44;95803.00;5049465;28;20069;-65
2022/02/05 06:28:21;;;;;;;3.40;2.72;;;;;;;4.74;59.09;95832.97;5049475;28;20106;-64
2022/02/05 06:30:47;;;;;;;4.15;2.90;;;;;;;4.96;59.58;95852.16;5049664;28;20029;-65
2022/02/05 06:33:13;;;;;;;3.35;2.90;;;;;;;5.11;58.49;95836.44;5050003;28;20052;-65
2022/02/05 06:35:39;;;;;;;4.43;3.28;;;;;;;4.93;57.83;95823.66;5049799;28;20025;-65
2022/02/05 06:38:04;;;;;;;5.28;3.50;;;;;;;5.39;57.64;95864.38;5050055;28;20547;-64
2022/02/05 06:40:30;;;;;;;4.72;3.30;;;;;;;5.40;57.17;95844.84;5049558;28;20153;-63
2022/02/05 06:42:56;;;;;;;6.20;3.42;;;;;;;4.92;58.56;95853.72;5049041;28;20486;-63
2022/02/05 06:45:21;;;;;;;3.75;3.17;;;;;;;4.69;59.15;95829.25;5053241;28;20029;-63
2022/02/05 06:47:47;;;;;;;3.05;2.75;;;;;;;4.12;60.88;95829.69;5053638;28;20029;-64
2022/02/05 06:50:13;;;;;;;5.38;3.20;;;;;;;4.89;59.32;95888.47;5053133;28;20111;-63
2022/02/05 06:52:41;;;;;;;2.92;2.60;;;;;;;3.85;62.22;95903.34;5053441;28;20033;-65
2022/02/05 06:55:09;;;;;;;4.15;2.70;;;;;;;4.33;60.77;95874.72;5053485;28;20171;-62
2022/02/05 06:57:35;;;;;;;3.70;2.63;;;;;;;4.23;60.83;95864.06;5052791;28;20111;-65
2022/02/05 07:00:01;;;;;;;2.70;2.42;;;;;;;4.40;59.65;95872.66;5052942;28;20445;-65
2022/02/05 07:02:26;;;;;;;4.85;3.22;;;;;;;4.82;58.29;95880.78;5053016;28;20496;-62
2022/02/05 07:04:51;;;;;;;2.67;2.47;;;;;;;4.97;58.29;95903.06;5053363;28;20428;-62
2022/02/05 07:07:18;;;;;;;2.92;2.50;;;;;;;5.23;57.28;95889.06;5053148;28;20021;-62
2022/02/05 07:09:43;;;;;;;3.58;2.75;;;;;;;4.51;58.36;95848.06;5052939;28;20067;-63
2022/02/05 07:12:11;;;;;;;2.33;2.08;;;;;;;4.56;58.33;95887.63;5052134;28;20028;-63
2022/02/05 07:14:46;;;;;;;3.25;2.45;;;;;;;5.33;56.83;95902.31;5052874;28;20099;-62
2022/02/05 07:17:25;;;;;;;3.28;2.08;;;;;;;4.48;58.15;95889.88;5053112;28;20079;-64
2022/02/05 07:20:08;;;;;;;3.63;2.20;;;;;;;4.62;58.03;95881.34;5036823;28;20020;-61
2022/02/05 07:22:44;;;;;;;3.95;2.60;;;;;;;5.09;57.38;95920.31;5052619;28;20054;-62
2022/02/05 07:30:19;;;;;;;2.40;2.20;;;;;;;4.96;57.32;95902.22;5052151;28;20060;-63
2022/02/05 07:32:44;;;;;;;3.45;1.90;;;;;;;5.11;57.38;95923.47;5052312;28;20021;-62
2022/02/05 07:35:09;;;;;;;2.55;2.08;;;;;;;4.49;57.80;95896.75;5052433;28;20025;-63
2022/02/05 07:37:35;;;;;;;4.10;1.88;;;;;;;3.79;61.18;95920.09;5052435;28;20051;-65
2022/02/05 07:40:00;;;;;;;3.50;1.65;;;;;;;4.17;59.38;95906.13;5052282;28;20104;-63
2022/02/05 07:42:26;;;;;;;2.30;2.08;;;;;;;4.11;59.93;95903.69;5051722;28;20083;-67
2022/02/05 07:44:52;;;;;;;2.47;1.60;;;;;;;4.55;58.96;95912.34;5052343;28;20032;-64
2022/02/05 07:47:21;;;;;;;2.83;2.28;;;;;;;5.07;58.05;95919.78;5052340;28;20040;-63
2022/02/05 07:49:46;;;;;;;2.28;1.88;;;;;;;5.78;55.58;95945.13;5052261;28;20036;-64
2022/02/05 07:52:12;;;;;;;5.75;2.10;;;;;;;5.91;55.45;95920.94;5052295;28;20104;-66
2022/02/05 07:54:38;;;;;;;5.55;1.88;;;;;;;5.92;53.99;95954.25;5051911;28;20510;-64
2022/02/05 07:57:04;;;;;;;2.25;2.05;;;;;;;5.97;54.66;95922.59;5050805;28;20025;-64
2022/02/05 07:59:30;;;;;;;3.88;2.10;;;;;;;6.49;53.47;95951.66;5051683;28;20025;-63
2022/02/05 08:01:56;;;;;;;4.45;2.05;;;;;;;5.85;54.05;95954.44;5051960;28;20533;-62
2022/02/05 08:04:21;;;;;;;4.05;1.85;;;;;;;5.61;54.81;95947.91;5051772;28;20025;-64
2022/02/05 08:06:47;;;;;;;1.58;1.48;;;;;;;5.67;55.13;95949.53;5052108;28;20369;-63
2022/02/05 08:09:20;;;;;;;3.72;1.73;;;;;;;5.69;54.62;95966.72;5051456;28;20021;-66
2022/02/05 08:12:03;;;;;;;3.20;1.75;;;;;;;5.35;55.18;95945.06;5051195;28;20484;-65
2022/02/05 08:14:29;;;;;;;2.17;1.95;;;;;;;5.55;54.49;95947.06;5051287;28;20418;-66
2022/02/05 08:17:01;;;;;;;3.97;2.97;;;;;;;5.90;54.03;95964.25;5051760;28;20050;-65
2022/02/05 08:19:26;;;;;;;5.07;2.50;;;;;;;5.84;53.62;95930.94;5051586;28;20025;-64
2022/02/05 08:21:52;;;;;;;3.80;1.70;;;;;;;5.41;54.05;95941.41;5051326;28;20028;-65
2022/02/05 08:24:17;;;;;;;2.72;1.70;;;;;;;6.04;52.31;95960.16;5051644;28;20104;-63
2022/02/05 08:26:43;;;;;;;2.85;1.67;;;;;;;5.21;54.55;95986.88;5051036;28;20657;-65
2022/02/05 08:29:10;;;;;;;2.95;1.75;;;;;;;4.93;55.55;95981.84;5050970;28;20385;-64
2022/02/05 08:31:36;;;;;;;5.72;2.03;;;;;;;5.28;55.08;95996.44;5051269;28;20110;-65
2022/02/05 08:34:01;;;;;;;2.30;1.45;;;;;;;5.81;53.98;95985.03;5051206;28;20454;-65
2022/02/05 08:36:30;;;;;;;2.97;1.98;;;;;;;5.89;52.27;95978.50;5051392;28;20032;-65
2022/02/05 08:38:55;;;;;;;3.15;1.70;;;;;;;5.19;52.25;95872.13;5050962;28;20028;-63
2022/02/05 08:41:21;;;;;;;3.47;1.75;;;;;;;6.02;53.04;95998.41;5051093;28;20025;-65
2022/02/05 08:43:46;;;;;;;5.13;1.75;;;;;;;6.16;52.08;95999.56;5050520;28;20021;-66
2022/02/05 08:46:12;;;;;;;1.67;1.30;;;;;;;5.51;52.36;95963.66;5051051;28;20112;-64
2022/02/05 08:48:38;;;;;;;2.08;1.70;;;;;;;4.72;53.86;95922.03;5051014;28;20495;-66
2022/02/05 08:51:05;;;;;;;2.50;1.35;;;;;;;6.05;51.15;95963.56;5050898;28;20147;-68
2022/02/05 08:53:31;;;;;;;5.80;1.95;;;;;;;6.28;51.64;95988.78;5050875;28;20021;-65
2022/02/05 08:55:56;;;;;;;2.05;1.50;;;;;;;6.78;50.02;95983.75;5051144;28;20036;-65
2022/02/05 08:58:22;;;;;;;2.53;1.65;;;;;;;6.78;49.72;95973.19;5049932;28;20028;-64
2022/02/05 09:00:51;;;;;;;3.60;1.48;;;;;;;7.29;48.96;95999.78;5050420;28;20116;-67
2022/02/05 09:05:53;;;;;;;1.95;1.40;;;;;;;7.42;48.27;96013.56;5051000;28;20021;-65
2022/02/05 09:08:32;;;;;;;6.13;1.80;;;;;;;6.28;49.59;96023.16;5049797;28;20029;-64
2022/02/05 09:11:09;;;;;;;4.90;1.50;;;;;;;6.82;49.92;96026.34;5050698;28;20370;-71
2022/02/05 09:16:01;;;;;;;3.25;1.05;;;;;;;6.32;49.11;95984.59;5050921;28;20025;-64
2022/02/05 09:18:27;;;;;;;6.78;1.20;;;;;;;7.46;47.48;96019.94;5050428;28;20036;-64
2022/02/05 09:20:53;;;;;;;2.33;1.40;;;;;;;6.73;47.18;95985.59;5050458;28;20028;-64
2022/02/05 09:23:19;;;;;;;5.40;1.17;;;;;;;8.12;45.35;95998.78;5050388;28;20037;-65
2022/02/05 09:25:44;;;;;;;3.45;1.40;;;;;;;6.77;48.27;96002.53;5050420;28;20501;-64
2022/02/05 09:28:10;;;;;;;6.10;1.35;;;;;;;6.83;48.27;96004.16;5049841;28;20039;-64
2022/02/05 09:31:36;;;;;;;2.92;1.40;;;;;;;7.25;46.99;96017.25;5060364;28;20171;-62
2022/02/05 09:33:30;;;;;;;1.85;1.23;;;;;;;6.25;49.03;96011.25;5056559;28;20045;-64
2022/02/05 09:35:55;;;;;;;3.20;1.42;;;;;;;7.38;47.31;96005.38;5070591;28;20055;-62
2022/02/05 09:38:21;;;;;;;5.10;1.17;;;;;;;7.59;45.44;96016.78;5070518;28;20101;-63
2022/02/05 09:40:46;;;;;;;6.93;1.42;;;;;;;6.49;47.26;95990.50;5070138;28;20028;-65
2022/02/05 09:43:12;;;;;;;5.78;1.35;;;;;;;7.47;45.54;96006.44;5057625;28;20033;-63
2022/02/05 09:45:38;;;;;;;0.95;0.90;;;;;;;7.30;45.78;96011.16;5058620;28;20087;-64
2022/02/05 09:48:06;;;;;;;2.25;1.00;;;;;;;7.48;45.59;96021.28;5032460;28;20473;-64
2022/02/05 09:50:31;;;;;;;2.95;1.00;;;;;;;6.34;46.17;95961.34;5049842;28;20029;-64
2022/02/05 09:53:02;;;;;;;4.55;1.10;;;;;;;6.86;44.63;96029.25;5050028;28;20035;-65
2022/02/05 09:55:28;;;;;;;2.33;1.17;;;;;;;6.13;45.37;95929.53;5050159;28;20025;-65
2022/02/05 09:57:55;;;;;;;1.67;1.02;;;;;;;6.35;46.33;96035.09;5049501;28;20025;-65
2022/02/05 10:00:21;;;;;;;10.25;1.42;;;;;;;5.73;46.75;95996.84;5066488;28;20017;-63
2022/02/05 10:02:56;;;;;;;2.10;0.98;;;;;;;5.81;46.09;95977.09;5070110;28;20029;-66
2022/02/05 10:05:29;;;;;;;2.80;1.52;;;;;;;6.31;45.97;96028.72;5070179;28;20020;-65
2022/02/05 10:08:07;;;;;;;3.55;0.90;;;;;;;5.79;47.18;96054.97;5070135;28;20032;-64
2022/02/05 10:10:46;;;;;;;1.45;0.75;;;;;;;5.66;46.78;96022.66;5070113;28;20037;-64
2022/02/05 10:13:15;;;;;;;3.50;1.15;;;;;;;6.03;45.50;96029.84;5037595;28;20021;-67
2022/02/05 10:15:41;;;;;;;4.65;0.90;;;;;;;6.09;44.82;96051.78;5061565;28;20025;-64
2022/02/05 10:18:27;;;;;;;3.50;0.90;;;;;;;6.51;45.52;96049.19;5052112;28;20032;-68
2022/02/05 10:20:58;;;;;;;4.20;1.13;;;;;;;6.33;44.63;96017.91;5073882;28;20027;-68
2022/02/05 10:23:24;;;;;;;3.50;1.05;;;;;;;6.28;43.84;96009.94;5055995;28;20476;-66
2022/02/05 10:25:52;;;;;;;2.00;0.93;;;;;;;5.53;45.05;96020.44;5073936;28;20029;-66
2022/02/05 10:28:18;;;;;;;2.70;0.70;;;;;;;5.13;45.53;96013.69;5061920;28;20025;-66
2022/02/05 10:30:47;;;;;;;2.88;0.82;;;;;;;5.66;45.42;95990.19;5073261;28;20028;-67
2022/02/05 10:35:50;;;;;;;2.75;0.82;;;;;;;5.59;45.87;96026.56;5074269;28;20372;-65
2022/02/05 10:41:01;;;;;;;1.67;0.97;;;;;;;6.06;45.31;96034.63;5073498;28;20043;-67
2022/02/05 10:43:33;;;;;;;3.60;0.88;;;;;;;5.67;44.85;96011.03;5041016;28;20029;-68
2022/02/05 10:46:02;;;;;;;1.80;1.10;;;;;;;6.14;43.17;96055.31;5035518;28;20021;-68
2022/02/05 10:48:28;;;;;;;1.02;0.57;;;;;;;6.01;44.11;96004.75;5053359;28;20079;-66
2022/02/05 10:50:59;;;;;;;5.82;1.02;;;;;;;6.73;43.58;96019.97;5035725;28;20215;-68
2022/02/05 10:53:37;;;;;;;1.83;1.13;;;;;;;6.83;42.79;96017.38;5035625;28;20029;-68
2022/02/05 10:59:11;;;;;;;3.00;0.80;;;;;;;7.15;41.79;96013.78;5052182;28;20060;-68
2022/02/05 11:07:14;;;;;;;2.85;0.80;;;;;;;6.27;44.71;96017.06;5053448;28;20032;-67
2022/02/05 11:09:43;;;;;;;3.45;0.95;;;;;;;6.21;45.23;96013.59;5067238;22;20071;-72
2022/02/05 11:20:07;;;;;;;2.42;0.90;;;;;;;7.70;40.38;95999.06;5052674;28;20575;-71
2022/02/05 11:22:36;;;;;;;;;;;;;;;6.90;39.91;96017.91;5035128;28;20038;-70
2022/02/05 11:25:07;;;;;;;9.48;1.20;;;;;;;7.24;39.79;96010.34;5052655;28;19916;-71
2022/02/05 11:27:33;;;;;;;4.10;0.82;;;;;;;6.32;41.68;96005.75;5051892;28;20125;-74
2022/02/05 11:30:36;;;;;;;6.25;1.00;;;;;;;6.73;41.24;96006.75;5033940;28;20021;-78
2022/02/05 11:33:19;;;;;;;2.00;0.90;;;;;;;7.56;40.15;95994.25;5034973;28;20032;-72
2022/02/05 11:38:31;;;;;;;3.42;1.17;;;;;;;7.67;40.70;95946.59;5052715;28;20060;-73
2022/02/05 11:40:59;;;;;;;2.70;0.80;;;;;;;6.59;42.46;95958.03;5052796;28;20031;-72
2022/02/05 11:43:27;;;;;;;6.78;1.10;;;;;;;6.85;42.21;95990.66;5034062;28;20029;-72
2022/02/05 11:46:06;;;;;;;1.50;1.02;;;;;;;7.25;41.05;96004.00;5052480;28;20032;-74
2022/02/05 11:49:00;;;;;;;2.20;1.02;;;;;;;6.88;42.86;96014.75;5034464;28;20079;-71
2022/02/05 11:51:34;;;;;;;4.25;1.30;;;;;;;8.45;40.38;96004.59;5052557;28;20473;-72
2022/02/05 11:54:08;;;;;;;2.38;1.13;;;;;;;7.52;40.21;95965.94;5052397;28;20025;-72
2022/02/05 11:56:33;;;;;;;3.13;0.85;;;;;;;6.75;42.73;96004.63;5051934;28;20021;-71
2022/02/05 11:59:00;;;;;;;1.48;1.02;;;;;;;7.00;42.19;95975.63;5033167;28;20079;-71
2022/02/05 12:01:34;;;;;;;2.88;0.90;;;;;;;7.12;42.21;95999.22;5051986;28;20363;-71
2022/02/05 12:04:23;;;;;;;2.58;0.95;;;;;;;6.82;42.88;96002.56;5034281;28;20047;-71
2022/02/05 12:06:54;;;;;;;1.85;1.00;;;;;;;7.19;40.95;95970.66;5052009;28;20179;-73
2022/02/05 12:09:43;;;;;;;3.05;1.00;;;;;;;7.66;40.10;95988.19;5051762;28;20029;-70
2022/02/05 12:12:34;;;;;;;2.10;0.80;;;;;;;7.18;41.16;96000.81;5034127;28;20523;-68
2022/02/05 12:15:15;;;;;;;2.85;1.00;;;;;;;7.34;40.61;95998.22;5027768;28;20029;-69
2022/02/05 12:21:02;;;;;;;5.18;1.50;;;;;;;6.73;41.74;95996.16;5051784;28;20040;-71
2022/02/05 12:24:14;;;;;;;2.92;1.20;;;;;;;7.58;41.42;95983.44;5041334;28;20036;-69
2022/02/05 12:26:30;;;;;;;3.28;1.20;;;;;;;7.15;41.57;95977.53;5051591;28;20132;-68
2022/02/05 12:29:01;;;;;;;3.80;1.35;;;;;;;7.77;40.99;95989.78;5051084;28;20021;-68
2022/02/05 12:31:29;;;;;;;3.92;0.80;;;;;;;7.64;40.92;95979.72;5051415;28;20025;-70
2022/02/05 12:33:59;;;;;;;6.47;1.10;;;;;;;7.23;40.95;95976.22;5051733;28;20074;-70
2022/02/05 12:36:42;;;;;;;3.20;1.02;;;;;;;7.08;41.88;95974.34;5033963;28;20032;-70
2022/02/05 12:39:10;;;;;;;2.85;0.90;;;;;;;7.27;40.91;95995.81;5034038;28;20039;-69
2022/02/05 12:41:46;;;;;;;6.43;1.00;;;;;;;6.88;41.12;95977.72;5050845;28;20485;-69
2022/02/05 12:44:12;;;;;;;4.97;0.93;;;;;;;7.77;39.16;95962.50;5050997;28;20037;-69
2022/02/05 12:46:49;;;;;;;1.83;1.20;;;;;;;7.49;40.15;95977.84;5051008;28;20024;-71
2022/02/05 12:49:29;;;;;;;1.17;0.90;;;;;;;8.14;39.45;95978.13;5051059;28;20485;-70
2022/02/05 12:51:57;;;;;;;2.88;1.17;;;;;;;7.98;39.63;95960.63;5033140;28;20032;-71
2022/02/05 12:54:27;;;;;;;4.32;1.10;;;;;;;8.08;39.37;95981.81;5051073;28;20067;-70
2022/02/05 12:56:54;;;;;;;5.93;1.20;;;;;;;7.84;40.67;95976.28;5051337;28;20025;-70
2022/02/05 12:59:27;;;;;;;3.08;1.33;;;;;;;7.87;40.88;95978.38;5032365;28;20020;-70
2022/02/05 13:01:55;;;;;;;2.58;1.23;;;;;;;7.75;41.17;95976.00;5050837;28;20021;-71
2022/02/05 13:04:24;;;;;;;5.88;0.90;;;;;;;7.39;41.19;95971.75;5050801;28;20078;-70
2022/02/05 13:07:10;;;;;;;1.65;0.90;;;;;;;7.30;41.90;95976.75;5032951;28;20025;-70
2022/02/05 13:09:43;;;;;;;2.42;1.05;;;;;;;7.71;40.65;95948.47;5033058;28;20539;-70
2022/02/05 13:12:10;;;;;;;5.82;1.00;;;;;;;7.62;40.49;95950.03;5050913;28;20031;-70
2022/02/05 13:14:55;;;;;;;2.65;0.90;;;;;;;7.36;40.63;95943.94;5050379;28;20094;-70
2022/02/05 13:17:52;;;;;;;1.33;0.88;;;;;;;7.80;39.32;95940.78;5032705;28;20547;-70
2022/02/05 13:34:23;;;;;;;4.10;1.13;;;;;;;8.45;39.08;95922.41;5050467;28;20501;-70
2022/02/05 13:37:00;;;;;;;2.65;0.90;;;;;;;8.69;39.14;95933.16;5050729;28;20079;-70
2022/02/05 13:39:52;;;;;;;3.20;1.00;;;;;;;7.81;40.14;95934.41;5032468;28;20036;-70
2022/02/05 13:42:24;;;;;;;3.33;0.97;;;;;;;8.64;38.61;95907.47;5050453;28;20029;-70
2022/02/05 13:45:00;;;;;;;2.75;0.70;;;;;;;8.59;38.59;95926.03;5031897;28;20013;-70
2022/02/05 13:47:31;;;;;;;1.45;0.60;;;;;;;7.71;39.42;95927.28;5032681;28;20512;-70
2022/02/05 13:49:59;;;;;;;2.58;0.70;;;;;;;7.40;39.88;95923.84;5032765;28;20025;-70
2022/02/05 13:52:32;;;;;;;1.70;0.90;;;;;;;8.21;39.13;95938.06;5050456;28;20520;-70
2022/02/05 13:55:06;;;;;;;2.10;1.10;;;;;;;8.20;39.55;95939.16;5053498;28;20040;-70
2022/02/05 13:57:32;;;;;;;1.77;0.90;;;;;;;8.43;39.40;95941.22;5036438;28;20032;-71
2022/02/05 13:59:57;;;;;;;8.00;0.80;;;;;;;7.82;39.96;95923.56;5053977;28;20389;-69
2022/02/05 14:02:23;;;;;;;2.05;0.90;;;;;;;8.99;37.67;95933.00;5054108;28;20029;-70
2022/02/05 14:05:11;;;;;;;1.92;0.88;;;;;;;8.38;37.83;95933.28;5054501;28;20032;-69
2022/02/05 14:07:41;;;;;;;4.10;1.05;;;;;;;8.42;37.73;95957.41;5036320;28;20025;-71
2022/02/05 14:10:14;;;;;;;7.10;0.80;;;;;;;8.26;38.38;95951.31;5036172;28;20025;-70
2022/02/05 14:12:50;;;;;;;2.22;0.80;;;;;;;8.72;37.53;95949.34;5054090;28;20495;-69
2022/02/05 14:15:17;;;;;;;2.05;0.90;;;;;;;8.62;37.50;95933.47;5053467;28;20021;-69
2022/02/05 14:17:42;;;;;;;0.80;0.80;;;;;;;8.14;38.08;95958.75;5036017;28;20040;-69
2022/02/05 14:20:11;;;;;;;2.97;0.75;;;;;;;8.25;37.66;95929.31;5035951;28;20029;-69
2022/02/05 14:22:39;;;;;;;2.38;1.30;;;;;;;7.99;38.15;95935.75;5053859;28;20036;-69
2022/02/05 14:25:05;;;;;;;1.98;1.00;;;;;;;8.55;37.72;95962.16;5054023;28;20111;-71
2022/02/05 14:27:32;;;;;;;2.55;0.77;;;;;;;8.53;37.51;95957.09;5054175;28;20021;-70
2022/02/05 14:30:07;;;;;;;2.80;0.60;;;;;;;7.65;38.49;95911.66;5034732;28;20504;-70
2022/02/05 14:35:06;;;;;;;4.47;1.02;;;;;;;8.68;37.96;95948.28;5054287;28;20090;-69
2022/02/05 14:40:27;;;;;;;1.65;0.60;;;;;;;7.48;39.78;95930.47;5053426;28;20086;-70
2022/02/05 14:42:52;;;;;;;1.65;0.60;;;;;;;7.75;40.55;95936.28;5053861;28;20095;-70
2022/02/05 14:45:18;;;;;;;1.10;0.65;;;;;;;7.95;39.54;95929.38;5035995;28;20466;-70
2022/02/05 14:47:43;;;;;;;2.35;0.75;;;;;;;8.17;38.86;95915.81;5054229;28;20035;-71
2022/02/05 14:50:09;;;;;;;4.25;0.95;;;;;;;8.47;38.74;95941.47;5036017;28;20060;-69
2022/02/05 14:52:34;;;;;;;1.38;0.60;;;;;;;7.34;39.24;95892.34;5054259;28;20025;-71
2022/02/05 14:55:00;;;;;;;1.08;0.85;;;;;;;7.55;39.75;95925.69;5054153;28;20132;-69